Time;durP1;ratioP1;P1;durP2;ratioP2;P2;SDS_P1;SDS_P2;PMS_P1;PMS_P2;Temp;Humidity;BMP_temperature;BMP_pressure;BME280_temperature;BME280_humidity;BME280_pressure;Samples;Min_cycle;Max_cycle;Signal;HPM_P1;HPM_P2
2021/06/21 00:00:07;;;;;;;0.55;0.30;;;15.60;96.10;;;;;;4922206;29;20495;-71
2021/06/21 00:02:34;;;;;;;0.68;0.25;;;15.70;95.80;;;;;;4924476;29;20507;-72
2021/06/21 00:05:02;;;;;;;1.48;0.30;;;16.20;96.20;;;;;;4924928;29;20098;-71
2021/06/21 00:07:30;;;;;;;2.15;0.80;;;16.50;95.20;;;;;;4922833;29;20027;-72
2021/06/21 00:10:00;;;;;;;1.08;0.20;;;16.50;94.40;;;;;;4922693;29;21623;-72
2021/06/21 00:12:27;;;;;;;0.93;0.20;;;16.60;94.70;;;;;;4925816;29;20055;-71
2021/06/21 00:14:55;;;;;;;0.60;0.17;;;16.70;94.30;;;;;;4926851;29;20035;-71
2021/06/21 00:17:22;;;;;;;0.40;0.20;;;16.80;94.10;;;;;;4924458;29;20313;-71
2021/06/21 00:19:49;;;;;;;0.60;0.10;;;16.70;93.50;;;;;;4926243;29;20023;-72
2021/06/21 00:22:18;;;;;;;1.60;0.40;;;16.60;93.80;;;;;;4903466;29;20098;-72
2021/06/21 00:24:47;;;;;;;0.65;0.10;;;16.60;93.60;;;;;;4922361;29;20500;-72
2021/06/21 00:27:15;;;;;;;0.85;0.25;;;16.50;93.00;;;;;;4925219;29;20078;-72
2021/06/21 00:29:42;;;;;;;1.27;0.30;;;16.50;93.50;;;;;;4921828;29;20659;-71
2021/06/21 00:32:10;;;;;;;2.25;0.13;;;16.50;93.70;;;;;;4922236;29;20415;-70
2021/06/21 00:34:38;;;;;;;0.85;0.20;;;16.40;93.60;;;;;;4924025;29;20047;-70
2021/06/21 00:37:05;;;;;;;2.72;0.32;;;16.20;93.70;;;;;;4923069;29;20047;-70
2021/06/21 00:39:33;;;;;;;4.55;0.20;;;16.30;94.50;;;;;;4926811;29;20035;-71
2021/06/21 00:42:00;;;;;;;1.92;0.30;;;17.00;93.00;;;;;;4924769;29;20054;-71
2021/06/21 00:44:27;;;;;;;0.30;0.20;;;17.20;93.40;;;;;;4922879;29;20159;-74
2021/06/21 00:46:55;;;;;;;2.47;0.63;;;17.30;92.50;;;;;;4924552;29;20028;-69
2021/06/21 00:49:22;;;;;;;1.73;0.40;;;17.30;92.30;;;;;;4923443;29;20032;-70
2021/06/21 00:51:52;;;;;;;3.00;0.35;;;17.40;92.30;;;;;;4926022;29;20031;-70
2021/06/21 00:54:21;;;;;;;1.10;0.20;;;17.90;91.70;;;;;;4923701;29;20024;-73
2021/06/21 00:56:48;;;;;;;1.25;0.20;;;18.20;91.60;;;;;;4924979;29;20035;-72
2021/06/21 00:59:17;;;;;;;1.20;0.20;;;18.60;91.20;;;;;;4924687;29;20027;-71
2021/06/21 01:01:44;;;;;;;1.55;0.60;;;18.50;90.50;;;;;;4925782;29;20095;-70
2021/06/21 01:04:11;;;;;;;0.85;0.20;;;18.70;90.10;;;;;;4928629;29;20028;-71
2021/06/21 01:06:39;;;;;;;1.50;0.20;;;19.10;89.60;;;;;;4929821;29;20044;-72
2021/06/21 01:09:13;;;;;;;0.63;0.10;;;19.10;89.90;;;;;;4925830;29;20035;-72
2021/06/21 01:11:56;;;;;;;0.43;0.17;;;18.90;89.20;;;;;;4927717;29;20398;-72
2021/06/21 01:14:53;;;;;;;1.80;0.40;;;19.20;88.70;;;;;;4927659;29;22016;-72
2021/06/21 01:17:28;;;;;;;0.85;0.40;;;19.00;88.10;;;;;;4927151;29;20043;-72
2021/06/21 01:20:06;;;;;;;3.63;0.30;;;18.70;89.40;;;;;;4927600;29;20023;-72
2021/06/21 01:22:58;;;;;;;3.42;0.30;;;19.10;89.70;;;;;;4923251;29;20027;-72
2021/06/21 01:25:34;;;;;;;2.05;0.20;;;19.50;89.70;;;;;;4926268;29;20051;-72
2021/06/21 01:28:14;;;;;;;0.88;0.10;;;19.20;88.70;;;;;;4924160;29;20039;-73
2021/06/21 01:31:04;;;;;;;8.32;0.50;;;19.00;89.50;;;;;;4926115;29;21985;-74
2021/06/21 01:33:33;;;;;;;3.20;0.32;;;18.70;88.40;;;;;;4926436;29;20020;-72
2021/06/21 01:36:07;;;;;;;0.98;0.20;;;18.50;90.20;;;;;;4930921;29;20032;-73
2021/06/21 01:38:42;;;;;;;0.82;0.20;;;18.30;90.60;;;;;;4931721;29;20038;-73
2021/06/21 01:41:20;;;;;;;1.73;0.40;;;18.10;90.60;;;;;;4930049;29;20023;-73
2021/06/21 01:43:50;;;;;;;2.03;0.30;;;18.10;90.60;;;;;;4930356;29;20740;-74
2021/06/21 01:46:19;;;;;;;0.05;0.05;;;18.20;90.40;;;;;;4930549;29;20541;-75
2021/06/21 01:48:54;;;;;;;1.35;0.22;;;18.10;89.70;;;;;;4926901;29;20094;-72
2021/06/21 01:51:23;;;;;;;1.08;0.60;;;17.80;90.30;;;;;;4926340;29;20461;-72
2021/06/21 01:53:56;;;;;;;2.53;0.30;;;17.60;90.20;;;;;;4923028;29;20913;-72
2021/06/21 01:56:33;;;;;;;1.40;0.10;;;17.40;90.80;;;;;;4926856;29;20101;-72
2021/06/21 01:59:04;;;;;;;1.55;0.20;;;17.30;91.40;;;;;;4925065;29;20040;-72
2021/06/21 02:01:33;;;;;;;0.30;0.10;;;17.30;91.20;;;;;;4924427;29;20048;-73
2021/06/21 02:04:04;;;;;;;1.40;0.28;;;17.30;91.80;;;;;;4925037;29;20052;-73
2021/06/21 02:06:34;;;;;;;0.77;0.22;;;17.40;91.00;;;;;;4927795;29;20035;-74
2021/06/21 02:09:05;;;;;;;0.90;0.30;;;17.50;91.20;;;;;;4926153;29;20032;-72
2021/06/21 02:11:33;;;;;;;1.83;0.35;;;17.60;90.90;;;;;;4926989;29;20091;-73
2021/06/21 02:14:02;;;;;;;0.45;0.20;;;17.70;90.60;;;;;;4924698;29;20020;-73
2021/06/21 02:16:31;;;;;;;1.95;0.20;;;18.00;90.90;;;;;;4927973;29;20039;-73
2021/06/21 02:18:59;;;;;;;1.20;0.20;;;18.30;90.70;;;;;;4925669;29;20534;-72
2021/06/21 02:21:28;;;;;;;2.53;0.20;;;18.50;89.60;;;;;;4923998;29;20028;-71
2021/06/21 02:23:56;;;;;;;2.08;0.32;;;18.30;90.00;;;;;;4924252;29;20023;-72
2021/06/21 02:26:25;;;;;;;0.70;0.30;;;18.30;90.40;;;;;;4924858;29;20038;-72
2021/06/21 02:29:00;;;;;;;2.42;0.40;;;18.20;90.50;;;;;;4923476;29;20075;-73
2021/06/21 02:31:29;;;;;;;2.27;0.40;;;18.00;89.90;;;;;;4926977;29;20047;-72
2021/06/21 02:33:56;;;;;;;1.10;0.30;;;17.70;90.50;;;;;;4929120;29;20020;-72
2021/06/21 02:36:24;;;;;;;3.67;0.30;;;17.60;91.20;;;;;;4926005;29;20109;-72
2021/06/21 02:38:53;;;;;;;3.38;0.45;;;17.70;91.40;;;;;;4924401;29;20115;-73
2021/06/21 02:41:21;;;;;;;3.78;0.35;;;17.70;91.50;;;;;;4927904;29;20062;-73
2021/06/21 02:43:48;;;;;;;0.68;0.13;;;17.70;91.10;;;;;;4924068;29;20035;-71
2021/06/21 02:46:16;;;;;;;2.97;0.45;;;17.60;90.90;;;;;;4928407;29;20035;-72
2021/06/21 02:48:43;;;;;;;0.85;0.20;;;17.70;90.90;;;;;;4924538;29;20107;-72
2021/06/21 02:51:22;;;;;;;2.13;0.90;;;18.00;90.60;;;;;;4926811;29;20031;-72
2021/06/21 02:54:03;;;;;;;0.77;0.40;;;19.00;88.90;;;;;;4931259;29;20060;-72
2021/06/21 02:56:56;;;;;;;1.70;0.28;;;19.40;86.40;;;;;;4922953;29;20638;-71
2021/06/21 02:59:25;;;;;;;0.90;0.10;;;19.00;86.20;;;;;;4925409;29;20046;-71
2021/06/21 03:01:55;;;;;;;2.70;0.30;;;18.50;87.60;;;;;;4924725;29;20126;-71
2021/06/21 03:04:24;;;;;;;1.02;0.20;;;18.20;88.80;;;;;;4924009;29;20043;-72
2021/06/21 03:06:53;;;;;;;1.17;0.20;;;18.00;90.40;;;;;;4924909;29;20043;-72
2021/06/21 03:09:22;;;;;;;1.85;0.20;;;17.90;90.50;;;;;;4925933;29;20046;-72
2021/06/21 03:11:51;;;;;;;0.93;0.20;;;17.90;90.80;;;;;;4924229;29;20075;-71
2021/06/21 03:14:24;;;;;;;2.88;0.43;;;18.00;90.50;;;;;;4922984;29;20051;-72
2021/06/21 03:16:58;;;;;;;0.63;0.20;;;18.20;89.70;;;;;;4920213;29;20030;-72
2021/06/21 03:19:30;;;;;;;2.53;1.10;;;18.40;90.40;;;;;;4922523;29;20063;-73
2021/06/21 03:21:58;;;;;;;2.53;0.40;;;18.80;89.80;;;;;;4920434;29;20024;-73
2021/06/21 03:24:26;;;;;;;1.88;0.50;;;19.10;88.50;;;;;;4926615;29;20055;-73
2021/06/21 03:26:54;;;;;;;1.60;0.40;;;18.90;89.50;;;;;;4923457;29;20529;-72
2021/06/21 03:29:23;;;;;;;1.42;0.38;;;18.60;89.70;;;;;;4908098;29;20063;-71
2021/06/21 03:31:53;;;;;;;0.77;0.20;;;18.70;89.90;;;;;;4921782;29;20032;-71
2021/06/21 03:34:23;;;;;;;2.17;0.30;;;18.70;89.20;;;;;;4908075;29;20032;-72
2021/06/21 03:36:51;;;;;;;1.27;0.60;;;19.00;90.70;;;;;;4922086;29;20035;-72
2021/06/21 03:39:18;;;;;;;0.40;0.20;;;19.10;89.00;;;;;;4922790;29;20042;-73
2021/06/21 03:41:46;;;;;;;0.77;0.30;;;18.80;90.10;;;;;;4919655;29;20495;-71
2021/06/21 03:44:14;;;;;;;2.10;0.50;;;18.50;88.20;;;;;;4925009;29;20118;-72
2021/06/21 03:46:41;;;;;;;2.10;0.30;;;18.10;89.80;;;;;;4924283;29;20492;-72
2021/06/21 03:49:08;;;;;;;1.58;0.30;;;17.80;91.10;;;;;;4925097;29;20057;-72
2021/06/21 03:51:36;;;;;;;6.97;0.70;;;17.70;91.30;;;;;;4921808;29;20179;-72
2021/06/21 03:54:03;;;;;;;1.58;0.43;;;17.50;92.00;;;;;;4911013;29;20039;-72
2021/06/21 03:56:31;;;;;;;2.45;0.80;;;17.40;92.30;;;;;;4919038;29;20144;-72
2021/06/21 03:58:58;;;;;;;1.75;0.55;;;17.20;92.50;;;;;;4921947;29;20475;-71
2021/06/21 04:01:25;;;;;;;3.13;0.22;;;17.10;91.00;;;;;;4922953;29;20048;-72
2021/06/21 04:03:58;;;;;;;3.10;0.50;;;16.90;91.20;;;;;;4922168;29;20127;-72
2021/06/21 04:06:26;;;;;;;5.70;0.43;;;16.60;92.50;;;;;;4923573;29;20055;-74
2021/06/21 04:08:53;;;;;;;2.60;0.52;;;16.30;94.20;;;;;;4922962;29;20027;-73
2021/06/21 04:11:20;;;;;;;5.75;0.50;;;16.00;95.80;;;;;;4923514;29;20040;-74
2021/06/21 04:13:48;;;;;;;1.60;0.40;;;15.80;96.10;;;;;;4922126;29;20115;-74
2021/06/21 04:16:15;;;;;;;3.33;0.68;;;15.70;97.00;;;;;;4923781;29;20479;-74
2021/06/21 04:18:42;;;;;;;1.52;1.15;;;15.60;97.20;;;;;;4925632;29;20038;-75
2021/06/21 04:21:10;;;;;;;1.95;0.43;;;15.60;98.20;;;;;;4923122;29;20483;-74
2021/06/21 04:23:38;;;;;;;2.20;0.47;;;15.50;98.50;;;;;;4924837;29;20062;-74
2021/06/21 04:26:05;;;;;;;3.55;0.45;;;15.40;98.60;;;;;;4925329;29;21511;-74
2021/06/21 04:28:33;;;;;;;1.05;0.43;;;15.40;98.80;;;;;;4922452;29;20032;-74
2021/06/21 04:31:00;;;;;;;3.45;0.82;;;15.40;99.10;;;;;;4922964;29;20028;-74
2021/06/21 04:33:28;;;;;;;4.07;1.73;;;15.40;99.20;;;;;;4921991;29;20024;-74
2021/06/21 04:35:55;;;;;;;1.17;0.50;;;15.40;99.50;;;;;;4925776;29;20034;-73
2021/06/21 04:38:23;;;;;;;1.75;0.75;;;15.30;99.70;;;;;;4925055;29;20069;-73
2021/06/21 04:40:51;;;;;;;1.23;0.50;;;15.30;99.70;;;;;;4924698;29;20134;-74
2021/06/21 04:43:19;;;;;;;2.13;1.08;;;15.40;99.70;;;;;;4927699;29;20024;-74
2021/06/21 04:45:47;;;;;;;1.05;0.40;;;15.40;99.80;;;;;;4924151;29;20042;-74
2021/06/21 04:48:15;;;;;;;1.90;1.00;;;15.40;99.80;;;;;;4924036;29;20144;-74
2021/06/21 04:50:42;;;;;;;3.13;0.70;;;15.50;99.70;;;;;;4925644;29;20047;-74
2021/06/21 04:53:14;;;;;;;2.45;0.70;;;15.50;99.20;;;;;;4924469;29;20479;-74
2021/06/21 04:55:43;;;;;;;3.65;0.80;;;15.50;99.20;;;;;;4924580;29;20443;-73
2021/06/21 04:58:10;;;;;;;1.17;1.00;;;15.50;99.10;;;;;;4922152;29;20027;-73
2021/06/21 05:00:38;;;;;;;4.85;1.13;;;15.60;99.30;;;;;;4925545;29;22663;-74
2021/06/21 05:03:05;;;;;;;1.77;0.90;;;15.70;99.40;;;;;;4921548;29;20024;-74
2021/06/21 05:05:33;;;;;;;2.28;0.63;;;15.70;99.00;;;;;;4924801;29;20154;-73
2021/06/21 05:08:02;;;;;;;1.15;0.38;;;15.70;98.80;;;;;;4924896;29;20046;-73
2021/06/21 05:10:30;;;;;;;1.85;0.43;;;15.70;98.70;;;;;;4923803;29;20118;-73
2021/06/21 05:12:57;;;;;;;3.13;0.88;;;15.70;98.90;;;;;;4921545;29;20031;-73
2021/06/21 05:15:25;;;;;;;3.55;1.48;;;15.70;99.10;;;;;;4923204;29;20024;-73
2021/06/21 05:17:53;;;;;;;10.07;3.38;;;15.60;99.00;;;;;;4922891;29;20543;-72
2021/06/21 05:20:20;;;;;;;15.63;7.70;;;15.60;99.10;;;;;;4925322;29;20562;-73
2021/06/21 05:22:49;;;;;;;51.22;24.67;;;15.50;99.00;;;;;;4924454;29;20119;-73
2021/06/21 05:25:16;;;;;;;46.95;22.25;;;15.50;98.90;;;;;;4926351;29;20027;-73
2021/06/21 05:27:44;;;;;;;71.45;33.95;;;15.40;98.70;;;;;;4924836;29;20028;-73
2021/06/21 05:30:12;;;;;;;10.98;6.13;;;15.40;98.50;;;;;;4923175;29;20032;-73
2021/06/21 05:32:39;;;;;;;2.75;1.30;;;15.30;97.80;;;;;;4921023;29;20035;-73
2021/06/21 05:35:08;;;;;;;4.30;1.00;;;15.20;98.30;;;;;;4923308;29;20111;-73
2021/06/21 05:37:35;;;;;;;2.10;1.00;;;15.10;99.00;;;;;;4923783;29;20114;-72
2021/06/21 05:40:03;;;;;;;4.75;0.70;;;15.00;99.40;;;;;;4924770;29;20060;-73
2021/06/21 05:42:31;;;;;;;3.28;0.65;;;15.00;99.80;;;;;;4923029;29;20774;-72
2021/06/21 05:44:58;;;;;;;1.55;0.52;;;15.00;99.60;;;;;;4926114;29;20032;-71
2021/06/21 05:47:26;;;;;;;2.15;1.20;;;15.00;99.60;;;;;;4925596;29;20028;-72
2021/06/21 05:49:53;;;;;;;5.32;1.85;;;15.00;99.80;;;;;;4926592;29;20119;-72
2021/06/21 05:52:20;;;;;;;4.03;2.42;;;15.00;99.80;;;;;;4925170;29;20486;-72
2021/06/21 05:54:48;;;;;;;4.30;1.10;;;15.00;99.80;;;;;;4925313;29;20031;-72
2021/06/21 05:57:15;;;;;;;6.05;0.90;;;15.00;99.70;;;;;;4926117;29;20106;-72
2021/06/21 05:59:43;;;;;;;0.75;0.47;;;15.00;99.60;;;;;;4925820;29;20138;-73
2021/06/21 06:02:10;;;;;;;3.55;0.40;;;15.00;99.90;;;;;;4926696;29;20048;-74
2021/06/21 06:04:38;;;;;;;1.52;0.52;;;15.00;99.90;;;;;;4930287;29;20208;-75
2021/06/21 06:07:05;;;;;;;1.45;0.50;;;15.00;99.90;;;;;;4924571;29;20123;-72
2021/06/21 06:09:33;;;;;;;1.95;0.63;;;14.90;99.80;;;;;;4924736;29;20036;-73
2021/06/21 06:12:01;;;;;;;4.65;1.35;;;14.90;99.90;;;;;;4928709;29;20168;-73
2021/06/21 06:14:28;;;;;;;5.68;3.92;;;14.90;99.90;;;;;;4926990;29;20219;-72
2021/06/21 06:16:55;;;;;;;4.40;4.00;;;14.80;99.90;;;;;;4925426;29;20055;-73
2021/06/21 06:19:23;;;;;;;7.90;7.07;;;14.70;99.90;;;;;;4929265;29;20020;-72
2021/06/21 06:21:51;;;;;;;11.05;6.53;;;14.70;99.90;;;;;;4925839;29;20190;-73
2021/06/21 06:24:18;;;;;;;6.70;4.03;;;14.70;99.90;;;;;;4926376;29;20391;-72
2021/06/21 06:26:46;;;;;;;1.70;1.40;;;14.70;99.90;;;;;;4926898;29;20426;-72
2021/06/21 06:29:15;;;;;;;1.90;0.70;;;14.60;99.90;;;;;;4926423;29;20163;-73
2021/06/21 06:31:46;;;;;;;1.35;0.95;;;14.50;99.90;;;;;;4926170;29;20675;-72
2021/06/21 06:34:15;;;;;;;2.22;1.15;;;14.40;99.90;;;;;;4929334;29;20119;-73
2021/06/21 06:36:42;;;;;;;3.88;1.58;;;14.40;99.90;;;;;;4928250;29;20475;-72
2021/06/21 06:39:10;;;;;;;4.00;1.17;;;14.30;99.90;;;;;;4925894;29;20067;-73
2021/06/21 06:41:37;;;;;;;3.05;1.45;;;14.30;99.90;;;;;;4925577;29;20039;-73
2021/06/21 06:44:05;;;;;;;1.65;0.90;;;14.20;99.90;;;;;;4929178;29;20066;-73
2021/06/21 06:46:33;;;;;;;2.97;1.25;;;14.20;99.90;;;;;;4926509;29;20569;-72
2021/06/21 06:49:01;;;;;;;3.45;1.20;;;14.20;99.90;;;;;;4924929;29;20043;-72
2021/06/21 06:51:33;;;;;;;4.28;1.60;;;14.00;99.90;;;;;;4928079;29;20046;-72
2021/06/21 06:54:46;;;;;;;3.25;1.38;;;13.90;99.90;;;;;;4925562;29;20103;-72
2021/06/21 06:57:01;;;;;;;5.70;1.48;;;13.80;99.90;;;;;;4916833;29;20070;-72
2021/06/21 06:59:34;;;;;;;3.88;1.40;;;13.80;99.90;;;;;;4926286;29;20024;-74
2021/06/21 07:02:05;;;;;;;5.38;1.50;;;13.70;99.90;;;;;;4926721;29;20060;-74
2021/06/21 07:04:32;;;;;;;2.85;1.50;;;13.60;99.90;;;;;;4928631;29;20023;-75
2021/06/21 07:07:00;;;;;;;4.22;1.45;;;13.70;99.90;;;;;;4924383;29;20483;-74
2021/06/21 07:09:29;;;;;;;4.95;1.95;;;13.60;99.90;;;;;;4925059;29;20042;-75
2021/06/21 07:11:58;;;;;;;5.78;2.05;;;13.50;99.90;;;;;;4923843;29;20199;-74
2021/06/21 07:14:26;;;;;;;7.32;4.85;;;13.40;99.90;;;;;;4923801;29;20027;-74
2021/06/21 07:16:53;;;;;;;6.40;4.97;;;13.30;99.90;;;;;;4925968;29;20119;-74
2021/06/21 07:19:21;;;;;;;7.95;4.38;;;13.30;99.90;;;;;;4927280;29;20043;-74
2021/06/21 07:21:50;;;;;;;7.78;4.22;;;13.30;99.90;;;;;;4921973;29;20054;-74
2021/06/21 07:24:18;;;;;;;8.85;3.40;;;13.20;99.90;;;;;;4925789;29;20072;-75
2021/06/21 07:26:46;;;;;;;6.40;4.18;;;13.20;99.90;;;;;;4924098;29;20038;-72
2021/06/21 07:29:15;;;;;;;8.30;5.47;;;13.20;99.90;;;;;;4925357;29;20047;-75
2021/06/21 07:31:43;;;;;;;5.75;3.05;;;13.20;99.90;;;;;;4923918;29;20042;-75
2021/06/21 07:34:11;;;;;;;7.90;3.10;;;13.20;99.90;;;;;;4927640;29;20107;-73
2021/06/21 07:36:38;;;;;;;6.18;2.80;;;13.20;99.90;;;;;;4922564;29;20166;-75
2021/06/21 07:39:10;;;;;;;4.07;2.55;;;13.20;99.90;;;;;;4922970;29;20427;-77
2021/06/21 07:41:37;;;;;;;3.70;2.42;;;13.20;99.90;;;;;;4925607;29;20398;-73
2021/06/21 07:44:05;;;;;;;3.85;2.13;;;13.20;99.90;;;;;;4923228;29;20024;-74
2021/06/21 07:46:32;;;;;;;4.57;2.38;;;13.20;99.90;;;;;;4923837;29;20023;-74
2021/06/21 07:49:00;;;;;;;4.90;2.90;;;13.20;99.90;;;;;;4921885;29;20846;-74
2021/06/21 07:51:30;;;;;;;4.00;2.67;;;13.20;99.90;;;;;;4923605;29;20051;-75
2021/06/21 07:53:57;;;;;;;2.95;2.35;;;13.10;99.90;;;;;;4925109;29;20035;-76
2021/06/21 07:56:25;;;;;;;6.50;2.85;;;13.10;99.90;;;;;;4922895;29;20035;-76
2021/06/21 07:58:53;;;;;;;7.47;3.80;;;13.00;99.90;;;;;;4922656;29;20020;-76
2021/06/21 08:01:20;;;;;;;4.70;2.55;;;13.00;99.90;;;;;;4923591;29;20043;-75
2021/06/21 08:03:48;;;;;;;5.25;2.63;;;13.00;99.90;;;;;;4923562;29;20111;-75
2021/06/21 08:06:15;;;;;;;4.90;2.35;;;13.00;99.90;;;;;;4924543;29;20043;-74
2021/06/21 08:08:43;;;;;;;5.05;2.10;;;12.90;99.90;;;;;;4921993;29;20079;-76
2021/06/21 08:11:14;;;;;;;4.20;2.78;;;12.80;99.90;;;;;;4923070;29;20165;-76
2021/06/21 08:13:41;;;;;;;5.50;3.00;;;12.70;99.90;;;;;;4921805;29;20494;-76
2021/06/21 08:16:09;;;;;;;5.20;2.70;;;12.70;99.90;;;;;;4926596;29;20059;-76
2021/06/21 08:18:36;;;;;;;6.50;2.85;;;12.70;99.90;;;;;;4928211;29;20607;-76
2021/06/21 08:21:04;;;;;;;3.85;2.38;;;12.70;99.90;;;;;;4926488;29;20480;-77
2021/06/21 08:23:33;;;;;;;6.60;2.80;;;12.60;99.90;;;;;;4927431;29;20491;-76
2021/06/21 08:26:02;;;;;;;4.22;2.78;;;12.60;99.90;;;;;;4922709;29;20029;-76
2021/06/21 08:28:30;;;;;;;3.65;2.42;;;12.60;99.90;;;;;;4926580;29;20062;-77
2021/06/21 08:30:57;;;;;;;5.07;3.25;;;12.60;99.90;;;;;;4930252;29;20035;-77
2021/06/21 08:33:25;;;;;;;4.15;2.75;;;12.50;99.90;;;;;;4924924;29;20035;-78
2021/06/21 08:35:52;;;;;;;4.55;3.22;;;12.50;99.90;;;;;;4926614;29;20039;-75
2021/06/21 08:38:20;;;;;;;4.82;2.70;;;12.50;99.90;;;;;;4930982;29;20116;-75
2021/06/21 08:40:47;;;;;;;5.53;2.72;;;12.50;99.90;;;;;;4932607;29;20492;-78
2021/06/21 08:43:15;;;;;;;7.50;2.22;;;12.50;99.90;;;;;;4913084;29;20032;-75
2021/06/21 08:45:44;;;;;;;4.13;1.45;;;12.50;99.90;;;;;;4927120;29;20107;-78
2021/06/21 08:48:12;;;;;;;3.28;1.08;;;12.60;99.90;;;;;;4926845;29;20024;-77
2021/06/21 08:50:41;;;;;;;1.10;0.82;;;12.60;99.90;;;;;;4924320;29;20051;-76
2021/06/21 08:53:12;;;;;;;3.53;0.43;;;12.60;99.90;;;;;;4926600;29;20036;-76
2021/06/21 08:55:40;;;;;;;1.70;0.85;;;12.60;99.90;;;;;;4929303;29;20039;-76
2021/06/21 08:58:07;;;;;;;2.67;1.15;;;12.60;99.90;;;;;;4931102;29;20558;-77
2021/06/21 09:00:35;;;;;;;4.80;2.15;;;12.60;99.90;;;;;;4926977;29;20032;-75
2021/06/21 09:03:04;;;;;;;7.93;3.13;;;12.70;99.90;;;;;;4918644;29;20027;-75
2021/06/21 09:05:35;;;;;;;8.02;2.90;;;12.70;99.90;;;;;;4925587;29;20032;-75
2021/06/21 09:08:06;;;;;;;9.25;3.35;;;12.70;99.90;;;;;;4926643;29;20102;-76
2021/06/21 09:10:35;;;;;;;8.57;2.50;;;12.70;99.90;;;;;;4927777;29;20038;-76
2021/06/21 09:13:13;;;;;;;6.00;2.33;;;12.70;99.90;;;;;;4926138;29;20041;-77
2021/06/21 09:15:48;;;;;;;3.35;1.38;;;12.70;99.90;;;;;;4923010;29;20066;-76
2021/06/21 09:18:32;;;;;;;5.25;1.30;;;12.70;99.90;;;;;;4927199;29;20028;-76
2021/06/21 09:21:39;;;;;;;2.90;1.35;;;12.70;99.90;;;;;;4929096;29;20055;-74
2021/06/21 09:24:24;;;;;;;24.00;10.93;;;12.60;99.90;;;;;;4930603;29;20043;-75
2021/06/21 09:26:58;;;;;;;32.90;13.05;;;12.60;99.90;;;;;;4929364;29;20076;-77
2021/06/21 09:29:42;;;;;;;26.55;12.20;;;12.50;99.90;;;;;;4925290;29;20032;-77
2021/06/21 09:32:09;;;;;;;43.03;21.00;;;12.60;99.90;;;;;;4927866;29;20040;-77
2021/06/21 09:34:46;;;;;;;35.20;18.50;;;12.50;99.90;;;;;;4934983;29;20024;-77
2021/06/21 09:37:35;;;;;;;35.92;16.13;;;12.50;99.90;;;;;;4927317;29;20031;-74
2021/06/21 09:40:03;;;;;;;27.50;12.70;;;12.50;99.90;;;;;;4927083;29;20072;-74
2021/06/21 09:42:30;;;;;;;31.08;15.65;;;12.40;99.90;;;;;;4926054;29;20024;-75
2021/06/21 09:45:00;;;;;;;34.83;17.75;;;12.50;99.90;;;;;;4933657;29;20032;-77
2021/06/21 09:47:38;;;;;;;18.27;11.52;;;12.40;99.90;;;;;;4930719;29;20047;-75
2021/06/21 09:50:13;;;;;;;20.67;10.70;;;12.50;99.90;;;;;;4925484;29;20063;-74
2021/06/21 09:52:52;;;;;;;26.70;15.80;;;12.40;99.90;;;;;;4929102;29;20032;-74
2021/06/21 09:55:27;;;;;;;18.48;10.35;;;12.40;99.90;;;;;;4924390;29;20035;-76
2021/06/21 09:58:21;;;;;;;12.75;7.32;;;12.30;99.90;;;;;;4929569;29;20024;-76
2021/06/21 10:00:50;;;;;;;11.43;6.13;;;12.30;99.90;;;;;;4906414;29;20527;-77
2021/06/21 10:03:18;;;;;;;9.30;4.63;;;12.30;99.90;;;;;;4929363;29;20447;-76
2021/06/21 10:05:47;;;;;;;7.90;3.97;;;12.30;99.90;;;;;;4927694;29;20041;-75
2021/06/21 10:08:16;;;;;;;7.45;3.00;;;12.30;99.90;;;;;;4932915;29;20096;-75
2021/06/21 10:10:44;;;;;;;7.68;1.80;;;12.30;99.90;;;;;;4929888;29;20189;-76
2021/06/21 10:13:12;;;;;;;4.07;2.17;;;12.30;99.90;;;;;;4927375;29;20028;-76
2021/06/21 10:15:40;;;;;;;5.40;2.03;;;12.20;99.90;;;;;;4925573;29;20032;-77
2021/06/21 10:18:08;;;;;;;2.83;1.35;;;12.20;99.90;;;;;;4930920;29;20122;-76
2021/06/21 10:20:36;;;;;;;3.42;2.28;;;12.20;99.90;;;;;;4925132;29;20038;-77
2021/06/21 10:23:05;;;;;;;4.65;2.33;;;12.10;99.90;;;;;;4931820;29;20093;-76
2021/06/21 10:25:33;;;;;;;4.60;2.33;;;12.10;99.90;;;;;;4930200;29;20067;-77
2021/06/21 10:28:01;;;;;;;7.28;3.88;;;12.00;99.90;;;;;;4926950;29;20070;-76
2021/06/21 10:30:30;;;;;;;8.43;4.07;;;11.90;99.90;;;;;;4924242;29;20064;-77
2021/06/21 10:32:58;;;;;;;7.40;4.20;;;11.90;99.90;;;;;;4927576;29;20035;-76
2021/06/21 10:35:30;;;;;;;5.78;2.58;;;11.80;99.90;;;;;;4928617;29;20028;-76
2021/06/21 10:38:04;;;;;;;4.05;2.30;;;11.80;99.90;;;;;;4927893;29;20031;-77
2021/06/21 10:40:52;;;;;;;7.20;5.10;;;11.70;99.90;;;;;;4932265;29;20038;-77
2021/06/21 10:43:49;;;;;;;11.35;7.18;;;11.60;99.90;;;;;;4922008;29;20091;-77
2021/06/21 10:46:20;;;;;;;6.40;3.97;;;11.60;99.90;;;;;;4921475;29;20035;-77
2021/06/21 10:49:03;;;;;;;3.17;2.10;;;11.60;99.90;;;;;;4928043;29;20087;-77
2021/06/21 10:51:48;;;;;;;4.53;2.38;;;11.60;99.90;;;;;;4928330;29;20041;-76
2021/06/21 10:54:26;;;;;;;4.80;2.08;;;11.50;99.90;;;;;;4927647;29;20035;-77
2021/06/21 10:56:59;;;;;;;4.13;2.30;;;11.40;99.90;;;;;;4923728;29;20387;-76
2021/06/21 10:59:28;;;;;;;8.63;3.58;;;11.30;99.90;;;;;;4926212;29;20028;-77
2021/06/21 11:01:59;;;;;;;7.22;4.18;;;11.30;99.90;;;;;;4925512;29;20039;-77
2021/06/21 11:04:38;;;;;;;6.85;4.32;;;11.20;99.90;;;;;;4927666;29;20028;-76
2021/06/21 11:07:22;;;;;;;5.38;3.33;;;11.10;99.90;;;;;;4927796;29;20029;-76
2021/06/21 11:09:51;;;;;;;7.57;2.33;;;11.10;99.90;;;;;;4927585;29;20083;-76
2021/06/21 11:12:25;;;;;;;9.60;3.47;;;11.00;99.90;;;;;;4927350;29;20062;-77
2021/06/21 11:15:08;;;;;;;4.57;3.25;;;10.90;99.90;;;;;;4926345;29;20027;-76
2021/06/21 11:17:53;;;;;;;3.50;2.83;;;10.90;99.90;;;;;;4932068;29;20046;-76
2021/06/21 11:20:44;;;;;;;9.20;2.90;;;10.80;99.90;;;;;;4927183;29;20028;-77
2021/06/21 11:23:32;;;;;;;18.65;4.30;;;10.80;99.90;;;;;;4931271;29;20035;-77
2021/06/21 11:26:01;;;;;;;11.60;3.95;;;10.70;99.90;;;;;;4930939;29;20095;-77
2021/06/21 11:28:40;;;;;;;6.43;3.22;;;10.70;99.90;;;;;;4921185;29;20034;-78
2021/06/21 11:31:24;;;;;;;13.80;4.05;;;10.70;99.90;;;;;;4922898;29;20491;-76
2021/06/21 11:34:06;;;;;;;12.18;2.90;;;10.70;99.90;;;;;;4923050;29;20487;-76
2021/06/21 11:36:45;;;;;;;8.77;3.28;;;10.70;99.90;;;;;;4927559;29;20036;-76
2021/06/21 11:39:30;;;;;;;20.08;4.20;;;10.70;99.90;;;;;;4922501;29;20465;-78
2021/06/21 11:42:02;;;;;;;13.50;3.85;;;10.70;99.90;;;;;;4921356;29;20024;-76
2021/06/21 11:44:41;;;;;;;11.65;3.35;;;10.70;99.90;;;;;;4923844;29;20403;-76
2021/06/21 11:47:19;;;;;;;17.73;3.92;;;10.70;99.90;;;;;;4926456;29;20098;-76
2021/06/21 11:49:48;;;;;;;25.38;3.70;;;10.60;99.90;;;;;;4928588;29;20094;-75
2021/06/21 11:52:22;;;;;;;19.20;4.60;;;10.70;99.90;;;;;;4922304;29;20090;-75
2021/06/21 11:54:54;;;;;;;12.98;4.00;;;10.60;99.90;;;;;;4921274;29;20078;-76
2021/06/21 11:57:25;;;;;;;14.60;3.70;;;10.50;99.90;;;;;;4927109;29;20036;-76
2021/06/21 11:59:53;;;;;;;19.67;4.60;;;10.50;99.90;;;;;;4926611;29;20047;-76
2021/06/21 12:02:25;;;;;;;28.67;6.88;;;10.50;99.90;;;;;;4922493;29;20058;-75
2021/06/21 12:04:54;;;;;;;17.77;5.88;;;10.40;99.90;;;;;;4924678;29;20056;-76
2021/06/21 12:07:36;;;;;;;17.70;8.75;;;10.30;99.90;;;;;;4924514;29;20035;-76
2021/06/21 12:10:13;;;;;;;14.18;6.85;;;10.30;99.90;;;;;;4930225;29;20114;-76
2021/06/21 12:12:44;;;;;;;18.67;9.20;;;10.20;99.90;;;;;;4928509;29;20574;-76
2021/06/21 12:15:26;;;;;;;9.38;5.38;;;10.20;99.90;;;;;;4926437;29;20095;-76
2021/06/21 12:17:55;;;;;;;11.18;5.15;;;10.10;99.90;;;;;;4925584;29;20032;-76
2021/06/21 12:20:23;;;;;;;12.38;5.35;;;10.10;99.90;;;;;;4924568;29;20106;-76
2021/06/21 12:23:02;;;;;;;14.00;4.72;;;10.10;99.90;;;;;;4926292;29;20027;-77
2021/06/21 12:25:40;;;;;;;11.32;6.15;;;10.00;99.90;;;;;;4925468;29;20043;-76
2021/06/21 12:28:15;;;;;;;13.43;7.40;;;9.90;99.90;;;;;;4924696;29;20158;-77
2021/06/21 12:30:46;;;;;;;15.93;6.03;;;9.80;99.90;;;;;;4925925;29;20086;-77
2021/06/21 12:33:28;;;;;;;12.57;6.18;;;9.80;99.90;;;;;;4923743;29;20024;-76
2021/06/21 12:36:12;;;;;;;19.13;6.72;;;9.80;99.90;;;;;;4927134;29;20023;-77
2021/06/21 12:38:44;;;;;;;12.95;6.35;;;9.80;99.90;;;;;;4921088;29;20619;-77
2021/06/21 12:41:20;;;;;;;11.75;6.93;;;9.70;99.90;;;;;;4924341;29;20031;-77
2021/06/21 12:44:05;;;;;;;;;;;9.60;99.90;;;;;;4929837;29;20023;-77
2021/06/21 12:46:48;;;;;;;13.18;7.95;;;9.60;99.90;;;;;;4923776;29;20443;-77
2021/06/21 12:49:18;;;;;;;19.40;7.53;;;9.40;99.90;;;;;;4926661;29;20660;-76
2021/06/21 12:51:47;;;;;;;26.73;8.27;;;9.50;99.90;;;;;;4926243;29;20035;-76
2021/06/21 12:54:25;;;;;;;15.55;8.02;;;9.30;99.90;;;;;;4931258;29;20042;-78
2021/06/21 12:56:55;;;;;;;17.10;7.70;;;9.30;99.90;;;;;;4929874;29;20028;-76
2021/06/21 12:59:26;;;;;;;17.00;7.40;;;9.20;99.90;;;;;;4929959;29;20107;-75
2021/06/21 13:01:53;;;;;;;19.05;7.35;;;9.20;99.90;;;;;;4927996;29;20111;-75
2021/06/21 13:04:21;;;;;;;12.55;7.38;;;9.10;99.90;;;;;;4929385;29;20028;-74